Time;durP1;ratioP1;P1;durP2;ratioP2;P2;SDS_P1;SDS_P2;PMS_P1;PMS_P2;Temp;Humidity;BMP_temperature;BMP_pressure;BME280_temperature;BME280_humidity;BME280_pressure;Samples;Min_cycle;Max_cycle;Signal;HPM_P1;HPM_P2
2022/01/25 00:10:03;;;;;;;124.63;21.33;;;;;;;;;;5074763;28;20465;-72
2022/01/25 00:15:24;;;;;;;109.67;19.50;;;;;;;;;;5051453;28;20440;-73
2022/01/25 00:26:18;;;;;;;121.83;23.53;;;;;;;;;;5074267;28;20440;-73
2022/01/25 00:28:49;;;;;;;101.90;22.27;;;;;;;;;;5074267;28;20455;-72
2022/01/25 00:31:17;;;;;;;60.63;18.37;;;;;;;;;;5074248;28;20451;-72
2022/01/25 00:33:45;;;;;;;101.47;20.10;;;;;;;;;;5073950;28;20945;-72
2022/01/25 00:36:13;;;;;;;59.37;18.23;;;;;;;;;;5073902;28;20501;-72
2022/01/25 00:38:40;;;;;;;108.07;21.53;;;;;;;;;;5074121;28;20460;-72
2022/01/25 00:41:09;;;;;;;70.50;19.37;;;;;;;;;;5074249;28;20450;-73
2022/01/25 00:43:36;;;;;;;117.23;20.93;;;;;;;;;;5073847;28;20806;-72
2022/01/25 00:46:07;;;;;;;81.60;23.27;;;;;;;;;;5073973;28;20926;-73
2022/01/25 00:48:43;;;;;;;86.33;26.40;;;;;;;;;;5073870;28;20462;-73
2022/01/25 00:51:24;;;;;;;158.93;24.47;;;;;;;;;;5074046;28;20447;-73
2022/01/25 00:53:53;;;;;;;98.60;24.03;;;;;;;;;;5073626;28;20491;-72
2022/01/25 00:56:22;;;;;;;110.20;24.67;;;;;;;;;;5073516;28;20484;-72
2022/01/25 00:58:49;;;;;;;84.27;21.20;;;;;;;;;;5073548;28;20460;-72
2022/01/25 01:01:18;;;;;;;123.07;25.53;;;;;;;;;;5073878;28;20813;-73
2022/01/25 01:03:45;;;;;;;70.30;20.70;;;;;;;;;;5073625;28;20818;-72
2022/01/25 01:06:12;;;;;;;56.27;19.40;;;;;;;;;;5073177;28;20471;-73
2022/01/25 01:08:40;;;;;;;111.10;32.20;;;;;;;;;;5073651;28;20506;-72
2022/01/25 01:11:10;;;;;;;141.77;22.13;;;;;;;;;;5073748;28;20467;-73
2022/01/25 01:14:02;;;;;;;55.27;20.00;;;;;;;;;;5073268;28;20495;-72
2022/01/25 01:16:52;;;;;;;55.70;17.30;;;;;;;;;;5073364;28;20494;-72
2022/01/25 01:30:35;;;;;;;50.33;18.67;;;;;;;;;;5073433;28;20431;-72
2022/01/25 01:42:11;;;;;;;58.13;20.27;;;;;;;;;;5072991;28;20436;-73
2022/01/25 01:44:52;;;;;;;65.27;20.80;;;;;;;;;;5072959;28;20471;-72
2022/01/25 01:47:26;;;;;;;99.27;23.50;;;;;;;;;;5073169;28;20479;-72
2022/01/25 01:49:55;;;;;;;63.00;20.10;;;;;;;;;;5073300;28;20928;-72
2022/01/25 01:52:23;;;;;;;125.17;28.17;;;;;;;;;;5072976;28;20534;-73
2022/01/25 01:54:50;;;;;;;93.90;22.77;;;;;;;;;;5072790;28;20459;-72
2022/01/25 01:57:17;;;;;;;94.10;22.83;;;;;;;;;;5072781;28;20495;-72
2022/01/25 01:59:44;;;;;;;105.43;26.10;;;;;;;;;;5072787;28;20447;-72
2022/01/25 02:02:11;;;;;;;77.53;22.90;;;;;;;;;;5073044;28;20936;-72
2022/01/25 02:04:39;;;;;;;154.27;25.37;;;;;;;;;;5072082;28;20455;-72
2022/01/25 02:07:06;;;;;;;67.83;21.20;;;;;;;;;;5072690;28;20470;-72
2022/01/25 02:09:34;;;;;;;86.03;23.33;;;;;;;;;;5073022;28;20459;-72
2022/01/25 02:12:01;;;;;;;81.40;21.37;;;;;;;;;;5072928;28;20458;-72
2022/01/25 02:14:28;;;;;;;109.73;21.90;;;;;;;;;;5072408;28;20451;-72
2022/01/25 02:17:04;;;;;;;56.97;19.80;;;;;;;;;;5072242;28;20856;-72
2022/01/25 02:22:26;;;;;;;61.50;19.43;;;;;;;;;;5072699;28;20566;-72
2022/01/25 02:24:54;;;;;;;77.70;22.00;;;;;;;;;;5072496;28;20546;-72
2022/01/25 02:27:21;;;;;;;87.10;21.80;;;;;;;;;;5072466;28;20467;-72
2022/01/25 02:29:48;;;;;;;46.63;16.10;;;;;;;;;;5073413;28;20937;-72
2022/01/25 02:32:15;;;;;;;58.60;19.90;;;;;;;;;;5076774;28;20460;-72
2022/01/25 02:34:42;;;;;;;38.53;19.13;;;;;;;;;;5076703;28;20459;-72
2022/01/25 02:37:11;;;;;;;74.93;19.57;;;;;;;;;;5076778;28;20491;-72
2022/01/25 02:39:42;;;;;;;80.80;21.67;;;;;;;;;;5076181;28;20467;-72
2022/01/25 02:42:09;;;;;;;69.93;22.67;;;;;;;;;;5076542;28;20451;-73
2022/01/25 02:44:37;;;;;;;45.43;17.87;;;;;;;;;;5076020;28;20444;-72
2022/01/25 02:49:50;;;;;;;68.23;20.47;;;;;;;;;;5076405;28;20465;-73
2022/01/25 02:52:17;;;;;;;53.27;18.30;;;;;;;;;;5076021;28;20463;-73
2022/01/25 02:54:45;;;;;;;58.03;18.97;;;;;;;;;;5075894;28;20975;-73
2022/01/25 02:57:13;;;;;;;43.43;20.30;;;;;;;;;;5075730;28;20529;-73
2022/01/25 02:59:40;;;;;;;57.57;20.30;;;;;;;;;;5075866;28;20466;-72
2022/01/25 03:02:07;;;;;;;66.97;18.30;;;;;;;;;;5076082;28;20459;-73
2022/01/25 03:04:34;;;;;;;63.10;19.17;;;;;;;;;;5075541;28;20447;-72
2022/01/25 03:07:02;;;;;;;80.37;19.10;;;;;;;;;;5075695;28;20478;-72
2022/01/25 03:09:29;;;;;;;71.87;18.83;;;;;;;;;;5075868;28;20459;-72
2022/01/25 03:11:59;;;;;;;49.40;19.57;;;;;;;;;;5075884;28;20451;-73
2022/01/25 03:14:31;;;;;;;56.33;20.77;;;;;;;;;;5076107;28;21003;-72
2022/01/25 03:17:11;;;;;;;69.10;19.90;;;;;;;;;;5076027;28;20488;-72
2022/01/25 03:19:50;;;;;;;69.33;19.63;;;;;;;;;;5075566;28;20459;-72
2022/01/25 03:22:31;;;;;;;49.37;19.87;;;;;;;;;;5075961;28;20798;-72
2022/01/25 03:24:58;;;;;;;47.47;15.57;;;;;;;;;;5075647;28;20461;-73
2022/01/25 03:27:26;;;;;;;66.03;18.30;;;;;;;;;;5075616;28;20937;-73
2022/01/25 03:29:54;;;;;;;34.70;16.10;;;;;;;;;;5075559;28;20452;-72
2022/01/25 03:32:21;;;;;;;34.07;14.77;;;;;;;;;;5075639;28;20510;-73
2022/01/25 03:34:48;;;;;;;55.93;16.60;;;;;;;;;;5075196;28;20448;-73
2022/01/25 03:37:15;;;;;;;77.97;19.77;;;;;;;;;;5075128;28;20494;-73
2022/01/25 03:39:42;;;;;;;51.53;17.63;;;;;;;;;;5075385;28;20463;-72
2022/01/25 03:42:11;;;;;;;75.23;16.90;;;;;;;;;;5074540;28;20443;-72
2022/01/25 03:44:42;;;;;;;55.37;18.00;;;;;;;;;;5074997;28;20884;-73
2022/01/25 03:47:13;;;;;;;58.40;17.40;;;;;;;;;;5075218;28;20990;-72
2022/01/25 03:49:50;;;;;;;47.30;17.00;;;;;;;;;;5075144;28;20809;-73
2022/01/25 03:52:19;;;;;;;53.30;16.40;;;;;;;;;;5075153;28;20505;-73
2022/01/25 03:54:48;;;;;;;66.53;18.73;;;;;;;;;;5074922;28;20455;-72
2022/01/25 03:57:15;;;;;;;47.13;15.00;;;;;;;;;;5075058;28;20941;-72
2022/01/25 03:59:43;;;;;;;49.93;18.07;;;;;;;;;;5075011;28;20443;-73
2022/01/25 04:02:11;;;;;;;54.37;18.80;;;;;;;;;;5074977;28;20949;-72
2022/01/25 04:04:38;;;;;;;54.10;19.13;;;;;;;;;;5074342;28;20459;-72
2022/01/25 04:07:09;;;;;;;56.37;20.33;;;;;;;;;;5074938;28;20468;-73
2022/01/25 04:09:37;;;;;;;41.43;19.03;;;;;;;;;;5074936;28;20456;-73
2022/01/25 04:12:04;;;;;;;42.43;17.90;;;;;;;;;;5074943;28;20447;-73
2022/01/25 04:14:32;;;;;;;38.00;16.97;;;;;;;;;;5074461;28;20452;-73
2022/01/25 04:17:03;;;;;;;35.97;16.63;;;;;;;;;;5074443;28;20994;-73
2022/01/25 04:19:35;;;;;;;39.90;15.63;;;;;;;;;;5074595;28;20483;-73
2022/01/25 04:25:04;;;;;;;73.97;19.63;;;;;;;;;;5074303;28;20424;-73
2022/01/25 04:27:32;;;;;;;58.97;18.43;;;;;;;;;;5074378;28;20440;-73
2022/01/25 04:29:59;;;;;;;50.43;16.37;;;;;;;;;;5074875;28;20443;-73
2022/01/25 04:32:34;;;;;;;39.53;17.60;;;;;;;;;;5074365;28;20454;-73
2022/01/25 04:35:26;;;;;;;62.67;19.27;;;;;;;;;;5074224;28;20447;-72
2022/01/25 04:49:02;;;;;;;69.47;17.37;;;;;;;;;;5074099;28;20845;-73
2022/01/25 04:51:47;;;;;;;55.83;17.93;;;;;;;;;;5074201;28;20554;-72
2022/01/25 04:54:22;;;;;;;54.00;17.40;;;;;;;;;;5073667;28;20491;-72
2022/01/25 04:56:57;;;;;;;33.00;14.50;;;;;;;;;;5073860;28;20521;-72
2022/01/25 04:59:34;;;;;;;63.47;19.00;;;;;;;;;;5074086;28;20439;-74
2022/01/25 05:02:06;;;;;;;114.83;23.83;;;;;;;;;;5074225;28;20542;-73
2022/01/25 05:04:40;;;;;;;87.90;18.50;;;;;;;;;;5073428;28;20551;-72
2022/01/25 05:07:19;;;;;;;48.37;16.47;;;;;;;;;;5073873;28;20563;-72
2022/01/25 05:09:47;;;;;;;47.60;16.90;;;;;;;;;;5073711;28;20452;-73
2022/01/25 05:12:14;;;;;;;46.17;17.80;;;;;;;;;;5073922;28;20814;-73
2022/01/25 05:14:57;;;;;;;59.47;19.50;;;;;;;;;;5073324;28;20447;-72
2022/01/25 05:17:32;;;;;;;49.13;18.70;;;;;;;;;;5073577;28;20992;-72
2022/01/25 05:22:42;;;;;;;41.63;16.10;;;;;;;;;;5073293;28;20430;-72
2022/01/25 05:25:09;;;;;;;65.83;17.27;;;;;;;;;;5073158;28;20452;-72
2022/01/25 05:27:36;;;;;;;70.80;19.73;;;;;;;;;;5073141;28;20456;-72
2022/01/25 05:30:04;;;;;;;61.67;17.07;;;;;;;;;;5073345;28;20450;-72
2022/01/25 05:32:34;;;;;;;29.57;16.87;;;;;;;;;;5073295;28;20444;-73
2022/01/25 05:35:02;;;;;;;68.07;18.83;;;;;;;;;;5073187;28;20800;-72
2022/01/25 05:37:31;;;;;;;35.70;15.60;;;;;;;;;;5072986;28;20480;-73
2022/01/25 05:40:01;;;;;;;51.27;17.37;;;;;;;;;;5073324;28;20463;-72
2022/01/25 05:45:21;;;;;;;46.10;16.77;;;;;;;;;;5072984;28;20457;-73
2022/01/25 05:47:48;;;;;;;75.83;17.07;;;;;;;;;;5073285;28;20908;-73
2022/01/25 05:50:17;;;;;;;31.17;14.30;;;;;;;;;;5073134;28;20447;-72
2022/01/25 05:52:44;;;;;;;41.83;16.40;;;;;;;;;;5073001;28;20965;-73
2022/01/25 05:55:12;;;;;;;36.60;13.40;;;;;;;;;;5072748;28;20456;-73
2022/01/25 05:57:39;;;;;;;43.17;17.60;;;;;;;;;;5072917;28;20488;-73
2022/01/25 06:00:07;;;;;;;49.43;15.57;;;;;;;;;;5073183;28;20451;-73
2022/01/25 06:02:35;;;;;;;43.17;15.10;;;;;;;;;;5072911;28;20533;-73
2022/01/25 06:05:02;;;;;;;43.57;15.00;;;;;;;;;;5072372;28;20508;-72
2022/01/25 06:07:31;;;;;;;45.37;15.50;;;;;;;;;;5072968;28;20436;-73
2022/01/25 06:09:58;;;;;;;65.27;20.67;;;;;;;;;;5072765;28;20546;-73
2022/01/25 06:12:25;;;;;;;43.33;16.40;;;;;;;;;;5073149;28;20454;-73
2022/01/25 06:14:52;;;;;;;67.33;19.60;;;;;;;;;;5072839;28;20476;-73
2022/01/25 06:17:19;;;;;;;49.53;17.73;;;;;;;;;;5073020;28;20971;-73
2022/01/25 06:19:46;;;;;;;62.93;18.10;;;;;;;;;;5072903;28;20452;-73
2022/01/25 06:22:13;;;;;;;47.17;18.03;;;;;;;;;;5073171;28;20456;-73
2022/01/25 06:24:42;;;;;;;45.97;17.43;;;;;;;;;;5072983;28;20455;-73
2022/01/25 06:27:09;;;;;;;36.90;17.10;;;;;;;;;;5072753;28;20475;-73
2022/01/25 06:29:36;;;;;;;32.90;15.30;;;;;;;;;;5072514;28;20469;-72
2022/01/25 06:32:03;;;;;;;37.80;16.50;;;;;;;;;;5073385;28;20802;-73
2022/01/25 06:34:30;;;;;;;31.60;15.90;;;;;;;;;;5073064;28;20951;-73
2022/01/25 06:36:58;;;;;;;33.80;16.10;;;;;;;;;;5072914;28;20472;-73
2022/01/25 06:39:25;;;;;;;38.80;16.00;;;;;;;;;;5072732;28;20499;-73
2022/01/25 06:41:53;;;;;;;28.63;14.70;;;;;;;;;;5073114;28;20933;-73
2022/01/25 06:44:20;;;;;;;31.87;14.63;;;;;;;;;;5072989;28;20451;-73
2022/01/25 06:46:47;;;;;;;43.87;16.73;;;;;;;;;;5072864;28;20472;-73
2022/01/25 06:49:14;;;;;;;46.80;16.17;;;;;;;;;;5072756;28;20801;-73
2022/01/25 06:51:42;;;;;;;34.93;14.73;;;;;;;;;;5072547;28;20455;-72
2022/01/25 06:54:09;;;;;;;29.40;14.77;;;;;;;;;;5072743;28;20957;-73
2022/01/25 06:56:36;;;;;;;22.50;11.90;;;;;;;;;;5072513;28;20478;-73
2022/01/25 06:59:05;;;;;;;29.70;13.73;;;;;;;;;;5072760;28;20996;-73
2022/01/25 07:01:33;;;;;;;42.20;13.50;;;;;;;;;;5072786;28;20458;-73
2022/01/25 07:04:00;;;;;;;33.10;15.77;;;;;;;;;;5072766;28;20451;-73
2022/01/25 07:06:27;;;;;;;31.27;13.20;;;;;;;;;;5072450;28;20476;-73
2022/01/25 07:08:55;;;;;;;33.07;14.70;;;;;;;;;;5072592;28;20447;-73
2022/01/25 07:11:23;;;;;;;38.30;15.17;;;;;;;;;;5072607;28;20452;-73
2022/01/25 07:13:50;;;;;;;30.00;15.53;;;;;;;;;;5072642;28;20505;-73
2022/01/25 07:16:19;;;;;;;30.23;14.40;;;;;;;;;;5072441;28;20476;-73
2022/01/25 07:18:46;;;;;;;40.33;14.70;;;;;;;;;;5076226;28;20479;-73
2022/01/25 07:21:13;;;;;;;40.77;14.63;;;;;;;;;;5075863;28;20471;-73
2022/01/25 07:23:41;;;;;;;34.93;14.50;;;;;;;;;;5075978;28;20451;-73
2022/01/25 07:26:08;;;;;;;29.57;14.90;;;;;;;;;;5075594;28;20606;-73
2022/01/25 07:28:36;;;;;;;48.63;15.23;;;;;;;;;;5075910;28;20447;-73
2022/01/25 07:31:03;;;;;;;36.53;14.10;;;;;;;;;;5075885;28;20505;-73
2022/01/25 07:33:32;;;;;;;67.63;18.43;;;;;;;;;;5075897;28;20971;-72
2022/01/25 07:35:59;;;;;;;42.47;14.83;;;;;;;;;;5075843;28;20475;-73
2022/01/25 07:38:26;;;;;;;30.20;13.90;;;;;;;;;;5075575;28;20852;-73
2022/01/25 07:40:53;;;;;;;30.77;13.93;;;;;;;;;;5075740;28;20444;-73
2022/01/25 07:43:20;;;;;;;39.83;15.60;;;;;;;;;;5075698;28;20932;-73
2022/01/25 07:45:51;;;;;;;57.93;17.60;;;;;;;;;;5075362;28;20468;-73
2022/01/25 07:48:19;;;;;;;41.50;15.50;;;;;;;;;;5075538;28;20555;-73
2022/01/25 07:50:48;;;;;;;40.40;14.97;;;;;;;;;;5075396;28;20447;-74
2022/01/25 07:53:15;;;;;;;42.23;15.50;;;;;;;;;;5075391;28;20450;-74
2022/01/25 07:55:42;;;;;;;63.93;18.10;;;;;;;;;;5075537;28;20478;-74
2022/01/25 07:58:09;;;;;;;38.70;18.10;;;;;;;;;;5075728;28;20491;-74
2022/01/25 08:00:36;;;;;;;34.43;16.27;;;;;;;;;;5075475;28;20444;-74
2022/01/25 08:03:04;;;;;;;43.60;19.70;;;;;;;;;;5075303;28;20458;-74
2022/01/25 08:05:31;;;;;;;47.73;17.87;;;;;;;;;;5074941;28;20504;-73
2022/01/25 08:08:01;;;;;;;28.93;13.03;;;;;;;;;;5075364;28;21012;-73
2022/01/25 08:10:28;;;;;;;38.27;17.10;;;;;;;;;;5075105;28;20468;-74
2022/01/25 08:12:55;;;;;;;55.27;16.20;;;;;;;;;;5075174;28;20932;-74
2022/01/25 08:15:24;;;;;;;39.70;15.87;;;;;;;;;;5075143;28;20550;-74
2022/01/25 08:17:52;;;;;;;30.97;14.67;;;;;;;;;;5075032;28;20506;-73
2022/01/25 08:20:19;;;;;;;54.97;17.43;;;;;;;;;;5074952;28;20491;-74
2022/01/25 08:22:46;;;;;;;53.90;15.50;;;;;;;;;;5074914;28;20509;-74
2022/01/25 08:25:15;;;;;;;41.37;16.07;;;;;;;;;;5074474;28;20450;-74
2022/01/25 08:27:42;;;;;;;38.90;14.57;;;;;;;;;;5074424;28;20819;-74
2022/01/25 08:30:09;;;;;;;41.57;14.80;;;;;;;;;;5074985;28;20455;-74
2022/01/25 08:32:37;;;;;;;43.10;15.53;;;;;;;;;;5074779;28;20456;-73
2022/01/25 08:35:04;;;;;;;51.07;15.60;;;;;;;;;;5074757;28;20455;-73
2022/01/25 08:37:31;;;;;;;52.30;24.30;;;;;;;;;;5074376;28;20452;-74
2022/01/25 08:39:58;;;;;;;44.77;16.83;;;;;;;;;;5074252;28;20484;-74
2022/01/25 08:42:27;;;;;;;52.13;17.07;;;;;;;;;;5074403;28;20451;-74
2022/01/25 08:44:54;;;;;;;49.30;18.77;;;;;;;;;;5074237;28;20882;-74
2022/01/25 08:47:21;;;;;;;70.70;17.30;;;;;;;;;;5074277;28;20475;-73
2022/01/25 08:49:48;;;;;;;90.07;20.67;;;;;;;;;;5074334;28;20448;-74
2022/01/25 08:52:15;;;;;;;147.60;48.43;;;;;;;;;;5074318;28;20448;-74
2022/01/25 08:54:42;;;;;;;45.50;17.87;;;;;;;;;;5074249;28;20949;-74
2022/01/25 08:57:10;;;;;;;45.53;19.10;;;;;;;;;;5074003;28;20846;-73
2022/01/25 08:59:38;;;;;;;42.77;18.77;;;;;;;;;;5074161;28;20479;-73
2022/01/25 09:02:06;;;;;;;83.93;18.20;;;;;;;;;;5074520;28;20456;-74
2022/01/25 09:04:33;;;;;;;64.67;27.17;;;;;;;;;;5073787;28;20460;-73
2022/01/25 09:07:00;;;;;;;58.27;25.27;;;;;;;;;;5074076;28;20468;-73
2022/01/25 09:09:27;;;;;;;55.77;22.70;;;;;;;;;;5074187;28;20455;-73
2022/01/25 09:11:56;;;;;;;48.30;21.57;;;;;;;;;;5073739;28;20468;-73
2022/01/25 09:14:23;;;;;;;46.07;20.80;;;;;;;;;;5073783;28;20958;-73
2022/01/25 09:16:52;;;;;;;52.50;19.07;;;;;;;;;;5073478;28;20998;-73
2022/01/25 09:19:19;;;;;;;55.87;21.57;;;;;;;;;;5073861;28;20483;-73
2022/01/25 09:21:46;;;;;;;61.97;22.00;;;;;;;;;;5073822;28;20456;-73
2022/01/25 09:24:13;;;;;;;53.47;19.67;;;;;;;;;;5074006;28;20462;-74
2022/01/25 09:26:40;;;;;;;52.83;19.63;;;;;;;;;;5073518;28;20483;-73
2022/01/25 09:29:07;;;;;;;42.37;19.57;;;;;;;;;;5073528;28;20454;-73
2022/01/25 09:31:35;;;;;;;47.07;18.80;;;;;;;;;;5073763;28;20831;-73
2022/01/25 09:34:03;;;;;;;54.80;20.53;;;;;;;;;;5073507;28;20455;-73
2022/01/25 09:36:30;;;;;;;58.33;19.80;;;;;;;;;;5073260;28;20483;-74
2022/01/25 09:38:57;;;;;;;58.37;19.80;;;;;;;;;;5073367;28;20892;-73
2022/01/25 09:41:24;;;;;;;53.53;19.90;;;;;;;;;;5073275;28;20440;-74
2022/01/25 09:43:52;;;;;;;41.07;19.33;;;;;;;;;;5073251;28;20447;-73
2022/01/25 09:46:19;;;;;;;58.57;22.57;;;;;;;;;;5073631;28;20976;-74
2022/01/25 09:48:46;;;;;;;51.90;19.50;;;;;;;;;;5073403;28;20448;-74
2022/01/25 09:51:14;;;;;;;56.33;23.30;;;;;;;;;;5073428;28;20825;-74
2022/01/25 09:53:42;;;;;;;54.77;20.60;;;;;;;;;;5072679;28;20458;-73
2022/01/25 09:56:09;;;;;;;58.30;21.30;;;;;;;;;;5073256;28;20869;-73
2022/01/25 09:58:36;;;;;;;47.30;17.20;;;;;;;;;;5073353;28;20459;-73
2022/01/25 10:01:04;;;;;;;71.03;22.60;;;;;;;;;;5073515;28;20447;-73
2022/01/25 10:03:34;;;;;;;58.93;19.60;;;;;;;;;;5073081;28;20818;-73
2022/01/25 10:06:02;;;;;;;53.60;22.77;;;;;;;;;;5073040;28;20482;-73
2022/01/25 10:08:32;;;;;;;48.40;22.63;;;;;;;;;;5072938;28;20456;-73
2022/01/25 10:11:00;;;;;;;53.43;21.07;;;;;;;;;;5073115;28;20463;-73
2022/01/25 10:13:28;;;;;;;50.80;19.97;;;;;;;;;;5073037;28;20456;-73
2022/01/25 10:15:59;;;;;;;58.10;20.17;;;;;;;;;;5072849;28;20554;-74
2022/01/25 10:18:37;;;;;;;65.73;23.37;;;;;;;;;;5072835;28;20455;-73
2022/01/25 10:21:04;;;;;;;58.90;23.90;;;;;;;;;;5073110;28;20924;-73
2022/01/25 10:23:35;;;;;;;57.73;21.47;;;;;;;;;;5073064;28;20447;-73
2022/01/25 10:26:03;;;;;;;47.20;20.30;;;;;;;;;;5071738;28;20761;-73
2022/01/25 10:28:31;;;;;;;53.63;22.70;;;;;;;;;;5071500;28;20851;-73
2022/01/25 10:30:59;;;;;;;41.40;20.83;;;;;;;;;;5071531;28;20440;-73
2022/01/25 10:33:31;;;;;;;39.70;19.70;;;;;;;;;;5071696;28;20464;-73
2022/01/25 10:35:59;;;;;;;44.33;20.17;;;;;;;;;;5071454;28;20475;-74
2022/01/25 10:38:27;;;;;;;39.33;19.87;;;;;;;;;;5071748;28;20451;-74
2022/01/25 10:40:57;;;;;;;49.40;20.07;;;;;;;;;;5071364;28;20490;-73
2022/01/25 10:43:25;;;;;;;40.33;19.60;;;;;;;;;;5071662;28;20454;-74
2022/01/25 10:46:09;;;;;;;51.50;20.73;;;;;;;;;;5071638;28;21060;-73
2022/01/25 10:48:37;;;;;;;39.20;19.37;;;;;;;;;;5071568;28;20431;-74
2022/01/25 10:51:05;;;;;;;39.57;19.70;;;;;;;;;;5072777;28;20446;-73
2022/01/25 10:53:32;;;;;;;43.80;19.60;;;;;;;;;;5075245;28;20458;-73
2022/01/25 10:56:01;;;;;;;37.43;17.80;;;;;;;;;;5075707;28;20960;-73
2022/01/25 10:58:29;;;;;;;39.00;19.60;;;;;;;;;;5075678;28;20447;-73
2022/01/25 11:00:58;;;;;;;33.17;16.73;;;;;;;;;;5074887;28;20491;-74
2022/01/25 11:03:29;;;;;;;34.10;17.53;;;;;;;;;;5088385;28;20523;-73
2022/01/25 11:05:58;;;;;;;31.20;16.80;;;;;;;;;;5095028;28;20477;-74
2022/01/25 11:08:28;;;;;;;33.10;16.27;;;;;;;;;;5095625;28;20818;-73
2022/01/25 11:10:57;;;;;;;30.03;17.37;;;;;;;;;;5095051;28;20455;-73
2022/01/25 11:13:38;;;;;;;32.40;16.10;;;;;;;;;;5096215;28;20450;-73
2022/01/25 11:16:06;;;;;;;39.57;20.50;;;;;;;;;;5096131;28;20531;-73
2022/01/25 11:18:33;;;;;;;33.23;16.40;;;;;;;;;;5096478;28;20450;-74
2022/01/25 11:21:01;;;;;;;33.43;18.43;;;;;;;;;;5096030;28;20482;-74
2022/01/25 11:23:28;;;;;;;31.40;17.13;;;;;;;;;;5096321;28;20931;-73
2022/01/25 11:25:56;;;;;;;35.60;19.57;;;;;;;;;;5096300;28;20469;-74
2022/01/25 11:28:24;;;;;;;35.70;19.93;;;;;;;;;;5096141;28;20935;-73
2022/01/25 11:30:53;;;;;;;40.90;19.87;;;;;;;;;;5095924;28;20500;-74
2022/01/25 11:33:20;;;;;;;27.50;17.93;;;;;;;;;;5096000;28;20450;-74
2022/01/25 11:35:48;;;;;;;33.70;19.80;;;;;;;;;;5096246;28;20524;-74
2022/01/25 11:38:15;;;;;;;33.90;19.87;;;;;;;;;;5095766;28;20450;-74
2022/01/25 11:40:46;;;;;;;38.20;18.57;;;;;;;;;;5095860;28;20497;-74
2022/01/25 11:43:14;;;;;;;44.97;21.47;;;;;;;;;;5096354;28;20898;-74
2022/01/25 11:45:43;;;;;;;38.13;19.83;;;;;;;;;;5095925;28;20476;-74
2022/01/25 11:48:11;;;;;;;34.70;19.00;;;;;;;;;;5095981;28;20458;-74
2022/01/25 11:50:40;;;;;;;35.23;18.87;;;;;;;;;;5095622;28;20447;-74
2022/01/25 11:53:08;;;;;;;34.57;17.93;;;;;;;;;;5095928;28;20457;-74
2022/01/25 11:55:36;;;;;;;40.53;21.67;;;;;;;;;;5095393;28;20478;-73
2022/01/25 11:58:04;;;;;;;38.47;21.60;;;;;;;;;;5095470;28;20502;-74
2022/01/25 12:00:42;;;;;;;30.37;18.03;;;;;;;;;;5095273;28;20538;-74
2022/01/25 12:03:24;;;;;;;43.47;20.90;;;;;;;;;;5094968;28;20449;-74
2022/01/25 12:05:56;;;;;;;40.67;19.30;;;;;;;;;;5095139;28;20849;-74
2022/01/25 12:08:28;;;;;;;41.23;20.27;;;;;;;;;;5095301;28;20478;-74
2022/01/25 12:11:05;;;;;;;43.90;17.20;;;;;;;;;;5095587;28;20981;-74
2022/01/25 12:13:33;;;;;;;38.57;20.10;;;;;;;;;;5095122;28;20931;-73
2022/01/25 12:16:19;;;;;;;46.37;18.43;;;;;;;;;;5095309;28;20475;-74
2022/01/25 12:18:58;;;;;;;41.73;19.20;;;;;;;;;;5095107;28;20804;-74
2022/01/25 12:21:58;;;;;;;43.17;19.30;;;;;;;;;;5095270;28;20989;-75
2022/01/25 12:24:30;;;;;;;43.40;20.33;;;;;;;;;;5032552;28;20490;-74
2022/01/25 12:27:02;;;;;;;39.40;18.63;;;;;;;;;;5032854;28;20527;-76
2022/01/25 12:29:33;;;;;;;57.20;24.20;;;;;;;;;;5055371;28;20452;-74
2022/01/25 12:32:15;;;;;;;49.70;25.60;;;;;;;;;;5086144;28;20442;-75
2022/01/25 12:37:54;;;;;;;47.10;22.00;;;;;;;;;;5111001;27;20595;-74
2022/01/25 12:40:32;;;;;;;47.97;21.30;;;;;;;;;;5110816;28;20887;-74
2022/01/25 12:43:00;;;;;;;41.03;19.83;;;;;;;;;;5111312;28;20430;-74
2022/01/25 12:45:28;;;;;;;50.03;21.93;;;;;;;;;;5111058;28;20465;-75
2022/01/25 12:47:56;;;;;;;40.67;19.97;;;;;;;;;;5110779;28;20453;-75
2022/01/25 12:50:23;;;;;;;44.37;21.03;;;;;;;;;;5110871;28;20450;-75
2022/01/25 12:52:51;;;;;;;48.37;22.07;;;;;;;;;;5110972;28;20813;-75
2022/01/25 12:55:23;;;;;;;58.10;24.57;;;;;;;;;;5110319;28;20441;-75
2022/01/25 12:57:52;;;;;;;60.27;24.50;;;;;;;;;;5110942;28;20438;-75
2022/01/25 13:00:20;;;;;;;48.83;22.93;;;;;;;;;;5110658;28;20454;-75
2022/01/25 13:02:47;;;;;;;44.17;20.37;;;;;;;;;;5109806;28;20962;-75
2022/01/25 13:05:17;;;;;;;45.60;18.97;;;;;;;;;;5110104;28;20450;-74
2022/01/25 13:07:44;;;;;;;38.03;18.47;;;;;;;;;;5090727;28;20486;-74
2022/01/25 13:10:13;;;;;;;41.67;18.90;;;;;;;;;;5090405;28;20451;-74
2022/01/25 13:12:55;;;;;;;36.33;16.33;;;;;;;;;;5090328;28;20818;-74
2022/01/25 13:15:40;;;;;;;46.37;21.27;;;;;;;;;;5090170;28;20486;-74
2022/01/25 13:18:10;;;;;;;36.10;16.97;;;;;;;;;;5090166;28;20533;-74
2022/01/25 13:20:39;;;;;;;36.40;17.87;;;;;;;;;;5089920;28;20451;-74
2022/01/25 13:23:06;;;;;;;39.53;20.73;;;;;;;;;;5090192;28;20473;-74
2022/01/25 13:25:52;;;;;;;31.30;18.17;;;;;;;;;;5087931;28;20471;-74
2022/01/25 13:28:33;;;;;;;40.10;17.83;;;;;;;;;;5089682;28;20830;-73
2022/01/25 13:31:06;;;;;;;30.90;15.70;;;;;;;;;;5089929;28;20525;-74
2022/01/25 13:33:33;;;;;;;29.77;16.37;;;;;;;;;;5089044;28;20457;-74
2022/01/25 13:36:01;;;;;;;35.03;15.23;;;;;;;;;;5089155;28;20497;-75
2022/01/25 13:38:30;;;;;;;32.30;15.40;;;;;;;;;;5089683;28;20801;-74
2022/01/25 13:41:07;;;;;;;30.57;15.63;;;;;;;;;;5088084;28;20502;-74
2022/01/25 13:46:23;;;;;;;30.30;13.80;;;;;;;;;;5088192;28;20454;-75
2022/01/25 13:48:53;;;;;;;19.00;11.47;;;;;;;;;;5075392;28;20459;-74
2022/01/25 13:51:21;;;;;;;27.03;14.40;;;;;;;;;;5074948;28;20847;-74
2022/01/25 13:53:52;;;;;;;25.60;13.03;;;;;;;;;;5074652;28;20516;-74
2022/01/25 13:56:20;;;;;;;26.03;13.47;;;;;;;;;;5074804;28;20947;-74
2022/01/25 13:58:48;;;;;;;29.03;13.37;;;;;;;;;;5074335;28;20846;-74
2022/01/25 14:01:18;;;;;;;31.00;13.83;;;;;;;;;;5074702;28;20448;-74
2022/01/25 14:03:52;;;;;;;31.60;14.93;;;;;;;;;;5074301;28;20460;-74
2022/01/25 14:06:23;;;;;;;32.00;15.27;;;;;;;;;;5073922;28;20502;-74
2022/01/25 14:08:50;;;;;;;28.90;13.80;;;;;;;;;;5074272;28;20940;-73
2022/01/25 14:11:21;;;;;;;28.77;17.03;;;;;;;;;;5074069;28;20448;-74
2022/01/25 14:22:29;;;;;;;26.07;12.63;;;;;;;;;;5089800;28;20918;-74
2022/01/25 14:24:57;;;;;;;26.33;13.00;;;;;;;;;;5094226;28;20936;-74
2022/01/25 14:27:27;;;;;;;27.70;15.60;;;;;;;;;;5095138;28;20481;-74
2022/01/25 14:29:54;;;;;;;24.33;13.50;;;;;;;;;;5095392;28;20451;-74
2022/01/25 14:32:29;;;;;;;31.53;14.90;;;;;;;;;;5095133;28;20443;-74
2022/01/25 14:35:02;;;;;;;31.00;13.00;;;;;;;;;;5095439;28;20438;-75
2022/01/25 14:37:29;;;;;;;23.50;12.60;;;;;;;;;;5095126;28;20498;-75
2022/01/25 14:40:04;;;;;;;30.40;14.70;;;;;;;;;;5095333;28;20450;-74
2022/01/25 14:42:31;;;;;;;32.63;14.60;;;;;;;;;;5095112;28;20435;-75
2022/01/25 14:45:01;;;;;;;31.13;13.10;;;;;;;;;;5095165;28;20457;-74
2022/01/25 14:47:35;;;;;;;29.53;13.23;;;;;;;;;;5095381;28;20450;-74
2022/01/25 14:50:07;;;;;;;25.50;12.73;;;;;;;;;;5078069;28;20467;-74
2022/01/25 14:52:34;;;;;;;29.60;13.03;;;;;;;;;;5073480;28;20439;-74
2022/01/25 14:55:01;;;;;;;22.00;11.33;;;;;;;;;;5073307;28;20455;-73
2022/01/25 14:57:39;;;;;;;22.40;12.70;;;;;;;;;;5073402;28;20498;-74
2022/01/25 15:00:08;;;;;;;24.27;14.47;;;;;;;;;;5072752;28;20469;-74
2022/01/25 15:02:35;;;;;;;31.50;17.60;;;;;;;;;;5073481;28;20460;-75
2022/01/25 15:05:03;;;;;;;20.80;11.50;;;;;;;;;;5073085;28;20819;-74
2022/01/25 15:07:33;;;;;;;29.77;12.33;;;;;;;;;;5073229;28;20469;-74
2022/01/25 15:10:03;;;;;;;20.80;11.90;;;;;;;;;;5073180;28;20522;-74
2022/01/25 15:12:35;;;;;;;26.37;13.97;;;;;;;;;;5073340;28;20822;-74
2022/01/25 15:15:08;;;;;;;31.10;13.40;;;;;;;;;;5073283;28;20965;-74
2022/01/25 15:17:35;;;;;;;23.53;14.27;;;;;;;;;;5073286;28;20472;-74
2022/01/25 15:20:05;;;;;;;24.83;12.17;;;;;;;;;;5073092;28;20460;-74
2022/01/25 15:22:32;;;;;;;29.27;14.30;;;;;;;;;;5074175;28;20963;-75
2022/01/25 15:25:00;;;;;;;23.47;11.50;;;;;;;;;;5074097;28;20825;-74
2022/01/25 15:27:29;;;;;;;21.33;10.70;;;;;;;;;;5073959;28;20452;-75
2022/01/25 15:29:57;;;;;;;23.47;11.57;;;;;;;;;;5074336;28;20920;-74
2022/01/25 15:32:24;;;;;;;22.30;12.67;;;;;;;;;;5074280;28;20833;-74
2022/01/25 15:34:51;;;;;;;20.60;11.90;;;;;;;;;;5074217;28;20459;-74
2022/01/25 15:37:20;;;;;;;26.33;11.60;;;;;;;;;;5073532;28;20492;-74
2022/01/25 15:39:48;;;;;;;21.70;12.13;;;;;;;;;;5073947;28;20885;-74
2022/01/25 15:42:16;;;;;;;24.30;14.00;;;;;;;;;;5073081;28;20444;-74
2022/01/25 15:44:45;;;;;;;24.60;13.77;;;;;;;;;;5073712;28;20585;-74
2022/01/25 15:47:13;;;;;;;25.07;11.37;;;;;;;;;;5073896;28;20463;-74
2022/01/25 15:49:41;;;;;;;30.57;15.43;;;;;;;;;;5074016;28;20447;-74